Ferry Osaka II — JD3858 — position and weather

sailwx.info

Track history (hours):
 
Tides and Currents Weather Stations Pressure Air Temp Water Temp Dewpoint Dewpoint Depression Visibility Wind Speed Wind Dir Waves Ship Positions

Ferry Osaka II

Last reported at 2018-Jun-21 15:13 UTC. Time now 2018-Jun-22 20:27 UTC.
Position N 34°26' E 134°01'.

Length 183 m; draft 7 m.

Type: Passenger vessel. MMSI: 431006802.

Date/timePositionNaut miles runAvg speedWind from/ knotsBaromVisibWave heightAir tempDewpointWater temp
2018-Jun-21 15:13N 34°26' E 134°01'1015.9
2018-Jun-21 14:37N 34°25' E 134°12'218.6
2018-Jun-21 14:30N 34°24' E 134°14'918.6
2018-Jun-21 14:01N 34°26' E 134°25'918.7
2018-Jun-21 13:30N 34°31' E 134°36'918.7
2018-Jun-21 13:00N 34°34' E 134°46'917.6
2018-Jun-21 12:30N 34°37' E 134°56'816.0
2018-Jun-21 12:00N 34°36' E 135°06'918.2
2018-Jun-21 11:31N 34°37' E 135°17'714.1
2018-Jun-21 11:00N 34°37' E 135°26'0 0.4
2018-Jun-21 10:28N 34°37' E 135°26'0 0.0
2018-Jun-21 09:54N 34°37' E 135°26'0 0.0
2018-Jun-21 09:27N 34°37' E 135°26'0 0.0
2018-Jun-21 08:52N 34°37' E 135°26'0 0.0
2018-Jun-21 08:27N 34°37' E 135°26'0 0.0
2018-Jun-21 07:57N 34°37' E 135°26'0 0.0
2018-Jun-21 07:31N 34°37' E 135°26'0 0.0
2018-Jun-21 06:58N 34°37' E 135°26'0 0.0
2018-Jun-21 06:27N 34°37' E 135°26'0 0.0
2018-Jun-21 05:58N 34°37' E 135°26'0 0.0
2018-Jun-21 05:27N 34°37' E 135°26'0 0.0
2018-Jun-21 04:51N 34°37' E 135°26'0 0.0
2018-Jun-21 04:28N 34°37' E 135°26'0 0.0
2018-Jun-21 03:52N 34°37' E 135°26'0 0.0
2018-Jun-21 03:27N 34°37' E 135°26'0 0.0
2018-Jun-21 02:57N 34°37' E 135°26'0 0.0
2018-Jun-21 02:27N 34°37' E 135°26'1 1.9
2018-Jun-21 01:59N 34°37' E 135°25'510.8
2018-Jun-21 01:31N 34°36' E 135°19'713.2
2018-Jun-21 01:00N 34°36' E 135°11'714.8
2018-Jun-21 00:30N 34°36' E 135°02'918.2
2018-Jun-21 00:00N 34°35' E 134°51'815.3
2018-Jun-20 23:30N 34°31' E 134°43'816.0
2018-Jun-20 23:00N 34°28' E 134°34'815.5
2018-Jun-20 22:30N 34°25' E 134°26'815.4
2018-Jun-20 22:00N 34°23' E 134°16'12 0.4
2018-Jun-19 15:16N 34°26' E 134°02'918.1
2018-Jun-19 14:47N 34°24' E 134°13'518.4
2018-Jun-19 14:30N 34°25' E 134°19'917.4
2018-Jun-19 14:00N 34°27' E 134°29'917.3
2018-Jun-19 13:30N 34°31' E 134°39'917.8
2018-Jun-19 13:00N 34°34' E 134°49'917.6
2018-Jun-19 12:30N 34°37' E 134°59'815.2
2018-Jun-19 12:00N 34°36' E 135°08'816.3
2018-Jun-19 11:31N 34°36' E 135°18'713.1
2018-Jun-19 11:00N 34°37' E 135°25'0 0.5
2018-Jun-19 10:19N 34°37' E 135°26'0 0.0
2018-Jun-19 09:55N 34°37' E 135°26'0 0.0
2018-Jun-19 09:25N 34°37' E 135°26'0 0.0
2018-Jun-19 08:55N 34°37' E 135°26'0 0.0
2018-Jun-19 08:25N 34°37' E 135°26'0 0.0
2018-Jun-19 07:55N 34°37' E 135°26'0 0.0
2018-Jun-19 07:25N 34°37' E 135°26'0 0.0
2018-Jun-19 06:55N 34°37' E 135°26'0 0.0
2018-Jun-19 06:25N 34°37' E 135°26'0 0.0
2018-Jun-19 05:55N 34°37' E 135°26'0 0.0
2018-Jun-19 05:25N 34°37' E 135°26'0 0.0
2018-Jun-19 04:55N 34°37' E 135°26'0 0.0
2018-Jun-19 04:25N 34°37' E 135°26'0 0.0
2018-Jun-19 03:55N 34°37' E 135°26'0 0.0
2018-Jun-19 03:13N 34°37' E 135°26'0 0.0
2018-Jun-19 02:49N 34°37' E 135°26'0 0.0
2018-Jun-19 02:19N 34°37' E 135°26'1 2.2
2018-Jun-19 02:00N 34°37' E 135°25'611.9
2018-Jun-19 01:30N 34°35' E 135°18'815.2
2018-Jun-19 01:00N 34°34' E 135°09'816.3
2018-Jun-19 00:30N 34°37' E 134°60'817.0
2018-Jun-19 00:00N 34°34' E 134°50'917.1
2018-Jun-18 23:30N 34°30' E 134°41'917.2
2018-Jun-18 23:00N 34°27' E 134°31'917.0
2018-Jun-18 22:30N 34°25' E 134°21'917.2
2018-Jun-18 22:00N 34°25' E 134°11'1114.1
2018-Jun-18 21:12N 34°25' E 133°57'14 0.5
2018-Jun-17 14:37N 34°24' E 134°14'218.4
2018-Jun-17 14:30N 34°24' E 134°16'917.6
2018-Jun-17 14:01N 34°27' E 134°27'917.3
2018-Jun-17 13:31N 34°30' E 134°36'918.2
2018-Jun-17 13:01N 34°33' E 134°47'1020.3
2018-Jun-17 12:31N 34°37' E 134°58'917.7
2018-Jun-17 12:00N 34°36' E 135°09'816.4
2018-Jun-17 11:30N 34°37' E 135°18'611.5
2018-Jun-17 11:00N 34°37' E 135°25'0 0.6
2018-Jun-17 10:25N 34°37' E 135°26'0 0.0
2018-Jun-17 09:55N 34°37' E 135°26'0 0.0
2018-Jun-17 09:25N 34°37' E 135°26'0 0.0
2018-Jun-17 08:49N 34°37' E 135°26'0 0.0
2018-Jun-17 08:25N 34°37' E 135°26'0 0.0
2018-Jun-17 07:55N 34°37' E 135°26'0 0.0
2018-Jun-17 07:25N 34°37' E 135°26'0 0.0
2018-Jun-17 06:43N 34°37' E 135°26'0 0.0
2018-Jun-17 06:25N 34°37' E 135°26'0 0.0
2018-Jun-17 05:52N 34°37' E 135°26'0 0.0
2018-Jun-17 05:25N 34°37' E 135°26'0 0.0
2018-Jun-17 04:55N 34°37' E 135°26'0 0.0
2018-Jun-17 04:25N 34°37' E 135°26'0 0.0
2018-Jun-17 03:55N 34°37' E 135°26'0 0.0
2018-Jun-17 03:25N 34°37' E 135°26'0 0.0
2018-Jun-17 02:55N 34°37' E 135°26'0 0.0
2018-Jun-17 02:25N 34°37' E 135°26'1 1.3
2018-Jun-17 02:00N 34°37' E 135°25'611.6
2018-Jun-17 01:31N 34°35' E 135°19'714.4
2018-Jun-17 01:00N 34°35' E 135°10'815.0
2018-Jun-17 00:30N 34°37' E 135°01'714.1
2018-Jun-17 00:00N 34°35' E 134°53'815.2
2018-Jun-16 23:31N 34°32' E 134°45'815.4
2018-Jun-16 23:00N 34°29' E 134°36'815.4
2018-Jun-16 22:30N 34°26' E 134°27'815.4
2018-Jun-16 22:00N 34°24' E 134°18'1 0.0
2018-Jun-15 13:56N 34°25' E 134°18'819.7
2018-Jun-15 13:30N 34°27' E 134°27'1020.1
2018-Jun-15 13:00N 34°31' E 134°38'1121.3
2018-Jun-15 12:31N 34°35' E 134°51'1121.2
2018-Jun-15 12:00N 34°36' E 135°03'1019.1
2018-Jun-15 11:31N 34°36' E 135°15'816.3
2018-Jun-15 11:00N 34°37' E 135°25'1 1.2
2018-Jun-15 10:17N 34°37' E 135°26'0 0.0
2018-Jun-15 09:59N 34°37' E 135°26'0 0.0
2018-Jun-15 09:29N 34°37' E 135°26'0 0.0
2018-Jun-15 08:59N 34°37' E 135°26'0 0.0
2018-Jun-15 08:29N 34°37' E 135°26'0 0.0
2018-Jun-15 07:59N 34°37' E 135°26'0 0.0
2018-Jun-15 07:29N 34°37' E 135°26'0 0.0
2018-Jun-15 06:59N 34°37' E 135°26'0 0.0
2018-Jun-15 06:23N 34°37' E 135°26'0 0.0
2018-Jun-15 05:47N 34°37' E 135°26'0 0.0
2018-Jun-15 05:23N 34°37' E 135°26'0 0.0
2018-Jun-15 04:59N 34°37' E 135°26'0 0.0
2018-Jun-15 04:29N 34°37' E 135°26'0 0.0
2018-Jun-15 03:53N 34°37' E 135°26'0 0.0
2018-Jun-15 03:29N 34°37' E 135°26'0 0.0
2018-Jun-15 02:59N 34°37' E 135°26'0 0.0
2018-Jun-15 02:29N 34°37' E 135°26'1 2.5
2018-Jun-15 02:00N 34°37' E 135°24'510.4
2018-Jun-15 01:30N 34°36' E 135°18'713.1
2018-Jun-15 01:00N 34°35' E 135°11'714.9
2018-Jun-15 00:30N 34°36' E 135°02'714.3
2018-Jun-15 00:00N 34°36' E 134°53'714.3
2018-Jun-14 23:30N 34°32' E 134°46'714.3
2018-Jun-14 23:00N 34°29' E 134°38'714.1
2018-Jun-14 22:31N 34°27' E 134°30'714.3
2018-Jun-14 22:00N 34°24' E 134°22'713.9
2018-Jun-14 21:30N 34°24' E 134°13'9 0.3
2018-Jun-13 14:43N 34°27' E 134°03'817.4
2018-Jun-13 14:16N 34°25' E 134°12'518.3
2018-Jun-13 14:00N 34°25' E 134°18'1019.5
2018-Jun-13 13:31N 34°28' E 134°29'1019.8
2018-Jun-13 13:01N 34°32' E 134°40'1020.7
2018-Jun-13 12:31N 34°35' E 134°52'1019.4
2018-Jun-13 12:01N 34°36' E 135°04'918.7
2018-Jun-13 11:31N 34°36' E 135°15'816.2
2018-Jun-13 11:00N 34°37' E 135°25'1 1.6
2018-Jun-13 10:30N 34°37' E 135°26'0 0.0
2018-Jun-13 10:00N 34°37' E 135°26'0 0.0
2018-Jun-13 09:30N 34°37' E 135°26'0 0.0
2018-Jun-13 09:00N 34°37' E 135°26'0 0.0
2018-Jun-13 08:27N 34°37' E 135°26'0 0.0
2018-Jun-13 08:00N 34°37' E 135°26'0 0.0
2018-Jun-13 07:30N 34°37' E 135°26'0 0.0
2018-Jun-13 07:00N 34°37' E 135°26'0 0.0
2018-Jun-13 06:29N 34°37' E 135°26'0 0.0
2018-Jun-13 06:00N 34°37' E 135°26'0 0.0
2018-Jun-13 05:30N 34°37' E 135°26'0 0.0
2018-Jun-13 05:00N 34°37' E 135°26'0 0.0
2018-Jun-13 04:29N 34°37' E 135°26'0 0.0
2018-Jun-13 03:58N 34°37' E 135°26'0 0.0
2018-Jun-13 03:29N 34°37' E 135°26'0 0.0
2018-Jun-13 03:00N 34°37' E 135°26'0 0.0
2018-Jun-13 02:29N 34°37' E 135°26'1 2.3
2018-Jun-13 02:00N 34°37' E 135°25'510.5
2018-Jun-13 01:30N 34°36' E 135°19'612.3
2018-Jun-13 01:00N 34°35' E 135°11'713.8
2018-Jun-13 00:30N 34°36' E 135°03'714.8
2018-Jun-13 00:00N 34°35' E 134°54'815.4
2018-Jun-12 23:30N 34°32' E 134°46'816.4
2018-Jun-12 23:00N 34°29' E 134°37'816.9
2018-Jun-12 22:30N 34°25' E 134°27'816.8
2018-Jun-12 22:00N 34°23' E 134°17'  
Track history (hours):
 
Tides and Currents Weather Stations Pressure Air Temp Water Temp Dewpoint Dewpoint Depression Visibility Wind Speed Wind Dir Waves Ship Positions

Ferry Osaka II

Last reported at 2018-Jun-21 15:13 UTC. Time now 2018-Jun-22 20:27 UTC.
Position N 34°26' E 134°01'.

Length 183 m; draft 7 m.

Type: Passenger vessel. MMSI: 431006802.

Date/timePositionNaut miles runAvg speedWind from/ knotsBaromVisibWave heightAir tempDewpointWater temp
2018-Jun-21 15:13N 34°26' E 134°01'1015.9
2018-Jun-21 14:37N 34°25' E 134°12'218.6
2018-Jun-21 14:30N 34°24' E 134°14'918.6
2018-Jun-21 14:01N 34°26' E 134°25'918.7
2018-Jun-21 13:30N 34°31' E 134°36'918.7
2018-Jun-21 13:00N 34°34' E 134°46'917.6
2018-Jun-21 12:30N 34°37' E 134°56'816.0
2018-Jun-21 12:00N 34°36' E 135°06'918.2
2018-Jun-21 11:31N 34°37' E 135°17'714.1
2018-Jun-21 11:00N 34°37' E 135°26'0 0.4
2018-Jun-21 10:28N 34°37' E 135°26'0 0.0
2018-Jun-21 09:54N 34°37' E 135°26'0 0.0
2018-Jun-21 09:27N 34°37' E 135°26'0 0.0
2018-Jun-21 08:52N 34°37' E 135°26'0 0.0
2018-Jun-21 08:27N 34°37' E 135°26'0 0.0
2018-Jun-21 07:57N 34°37' E 135°26'0 0.0
2018-Jun-21 07:31N 34°37' E 135°26'0 0.0
2018-Jun-21 06:58N 34°37' E 135°26'0 0.0
2018-Jun-21 06:27N 34°37' E 135°26'0 0.0
2018-Jun-21 05:58N 34°37' E 135°26'0 0.0
2018-Jun-21 05:27N 34°37' E 135°26'0 0.0
2018-Jun-21 04:51N 34°37' E 135°26'0 0.0
2018-Jun-21 04:28N 34°37' E 135°26'0 0.0
2018-Jun-21 03:52N 34°37' E 135°26'0 0.0
2018-Jun-21 03:27N 34°37' E 135°26'0 0.0
2018-Jun-21 02:57N 34°37' E 135°26'0 0.0
2018-Jun-21 02:27N 34°37' E 135°26'1 1.9
2018-Jun-21 01:59N 34°37' E 135°25'510.8
2018-Jun-21 01:31N 34°36' E 135°19'713.2
2018-Jun-21 01:00N 34°36' E 135°11'714.8
2018-Jun-21 00:30N 34°36' E 135°02'918.2
2018-Jun-21 00:00N 34°35' E 134°51'815.3
2018-Jun-20 23:30N 34°31' E 134°43'816.0
2018-Jun-20 23:00N 34°28' E 134°34'815.5
2018-Jun-20 22:30N 34°25' E 134°26'815.4
2018-Jun-20 22:00N 34°23' E 134°16'12 0.4
2018-Jun-19 15:16N 34°26' E 134°02'918.1
2018-Jun-19 14:47N 34°24' E 134°13'518.4
2018-Jun-19 14:30N 34°25' E 134°19'917.4
2018-Jun-19 14:00N 34°27' E 134°29'917.3
2018-Jun-19 13:30N 34°31' E 134°39'917.8
2018-Jun-19 13:00N 34°34' E 134°49'917.6
2018-Jun-19 12:30N 34°37' E 134°59'815.2
2018-Jun-19 12:00N 34°36' E 135°08'816.3
2018-Jun-19 11:31N 34°36' E 135°18'713.1
2018-Jun-19 11:00N 34°37' E 135°25'0 0.5
2018-Jun-19 10:19N 34°37' E 135°26'0 0.0
2018-Jun-19 09:55N 34°37' E 135°26'0 0.0
2018-Jun-19 09:25N 34°37' E 135°26'0 0.0
2018-Jun-19 08:55N 34°37' E 135°26'0 0.0
2018-Jun-19 08:25N 34°37' E 135°26'0 0.0
2018-Jun-19 07:55N 34°37' E 135°26'0 0.0
2018-Jun-19 07:25N 34°37' E 135°26'0 0.0
2018-Jun-19 06:55N 34°37' E 135°26'0 0.0
2018-Jun-19 06:25N 34°37' E 135°26'0 0.0
2018-Jun-19 05:55N 34°37' E 135°26'0 0.0
2018-Jun-19 05:25N 34°37' E 135°26'0 0.0
2018-Jun-19 04:55N 34°37' E 135°26'0 0.0
2018-Jun-19 04:25N 34°37' E 135°26'0 0.0
2018-Jun-19 03:55N 34°37' E 135°26'0 0.0
2018-Jun-19 03:13N 34°37' E 135°26'0 0.0
2018-Jun-19 02:49N 34°37' E 135°26'0 0.0
2018-Jun-19 02:19N 34°37' E 135°26'1 2.2
2018-Jun-19 02:00N 34°37' E 135°25'611.9
2018-Jun-19 01:30N 34°35' E 135°18'815.2
2018-Jun-19 01:00N 34°34' E 135°09'816.3
2018-Jun-19 00:30N 34°37' E 134°60'817.0
2018-Jun-19 00:00N 34°34' E 134°50'917.1
2018-Jun-18 23:30N 34°30' E 134°41'917.2
2018-Jun-18 23:00N 34°27' E 134°31'917.0
2018-Jun-18 22:30N 34°25' E 134°21'917.2
2018-Jun-18 22:00N 34°25' E 134°11'1114.1
2018-Jun-18 21:12N 34°25' E 133°57'14 0.5
2018-Jun-17 14:37N 34°24' E 134°14'218.4
2018-Jun-17 14:30N 34°24' E 134°16'917.6
2018-Jun-17 14:01N 34°27' E 134°27'917.3
2018-Jun-17 13:31N 34°30' E 134°36'918.2
2018-Jun-17 13:01N 34°33' E 134°47'1020.3
2018-Jun-17 12:31N 34°37' E 134°58'917.7
2018-Jun-17 12:00N 34°36' E 135°09'816.4
2018-Jun-17 11:30N 34°37' E 135°18'611.5
2018-Jun-17 11:00N 34°37' E 135°25'0 0.6
2018-Jun-17 10:25N 34°37' E 135°26'0 0.0
2018-Jun-17 09:55N 34°37' E 135°26'0 0.0
2018-Jun-17 09:25N 34°37' E 135°26'0 0.0
2018-Jun-17 08:49N 34°37' E 135°26'0 0.0
2018-Jun-17 08:25N 34°37' E 135°26'0 0.0
2018-Jun-17 07:55N 34°37' E 135°26'0 0.0
2018-Jun-17 07:25N 34°37' E 135°26'0 0.0
2018-Jun-17 06:43N 34°37' E 135°26'0 0.0
2018-Jun-17 06:25N 34°37' E 135°26'0 0.0
2018-Jun-17 05:52N 34°37' E 135°26'0 0.0
2018-Jun-17 05:25N 34°37' E 135°26'0 0.0
2018-Jun-17 04:55N 34°37' E 135°26'0 0.0
2018-Jun-17 04:25N 34°37' E 135°26'0 0.0
2018-Jun-17 03:55N 34°37' E 135°26'0 0.0
2018-Jun-17 03:25N 34°37' E 135°26'0 0.0
2018-Jun-17 02:55N 34°37' E 135°26'0 0.0
2018-Jun-17 02:25N 34°37' E 135°26'1 1.3
2018-Jun-17 02:00N 34°37' E 135°25'611.6
2018-Jun-17 01:31N 34°35' E 135°19'714.4
2018-Jun-17 01:00N 34°35' E 135°10'815.0
2018-Jun-17 00:30N 34°37' E 135°01'714.1
2018-Jun-17 00:00N 34°35' E 134°53'815.2
2018-Jun-16 23:31N 34°32' E 134°45'815.4
2018-Jun-16 23:00N 34°29' E 134°36'815.4
2018-Jun-16 22:30N 34°26' E 134°27'815.4
2018-Jun-16 22:00N 34°24' E 134°18'1 0.0
2018-Jun-15 13:56N 34°25' E 134°18'819.7
2018-Jun-15 13:30N 34°27' E 134°27'1020.1
2018-Jun-15 13:00N 34°31' E 134°38'1121.3
2018-Jun-15 12:31N 34°35' E 134°51'1121.2
2018-Jun-15 12:00N 34°36' E 135°03'1019.1
2018-Jun-15 11:31N 34°36' E 135°15'816.3
2018-Jun-15 11:00N 34°37' E 135°25'1 1.2
2018-Jun-15 10:17N 34°37' E 135°26'0 0.0
2018-Jun-15 09:59N 34°37' E 135°26'0 0.0
2018-Jun-15 09:29N 34°37' E 135°26'0 0.0
2018-Jun-15 08:59N 34°37' E 135°26'0 0.0
2018-Jun-15 08:29N 34°37' E 135°26'0 0.0
2018-Jun-15 07:59N 34°37' E 135°26'0 0.0
2018-Jun-15 07:29N 34°37' E 135°26'0 0.0
2018-Jun-15 06:59N 34°37' E 135°26'0 0.0
2018-Jun-15 06:23N 34°37' E 135°26'0 0.0
2018-Jun-15 05:47N 34°37' E 135°26'0 0.0
2018-Jun-15 05:23N 34°37' E 135°26'0 0.0
2018-Jun-15 04:59N 34°37' E 135°26'0 0.0
2018-Jun-15 04:29N 34°37' E 135°26'0 0.0
2018-Jun-15 03:53N 34°37' E 135°26'0 0.0
2018-Jun-15 03:29N 34°37' E 135°26'0 0.0
2018-Jun-15 02:59N 34°37' E 135°26'0 0.0
2018-Jun-15 02:29N 34°37' E 135°26'1 2.5
2018-Jun-15 02:00N 34°37' E 135°24'510.4
2018-Jun-15 01:30N 34°36' E 135°18'713.1
2018-Jun-15 01:00N 34°35' E 135°11'714.9
2018-Jun-15 00:30N 34°36' E 135°02'714.3
2018-Jun-15 00:00N 34°36' E 134°53'714.3
2018-Jun-14 23:30N 34°32' E 134°46'714.3
2018-Jun-14 23:00N 34°29' E 134°38'714.1
2018-Jun-14 22:31N 34°27' E 134°30'714.3
2018-Jun-14 22:00N 34°24' E 134°22'713.9
2018-Jun-14 21:30N 34°24' E 134°13'9 0.3
2018-Jun-13 14:43N 34°27' E 134°03'817.4
2018-Jun-13 14:16N 34°25' E 134°12'518.3
2018-Jun-13 14:00N 34°25' E 134°18'1019.5
2018-Jun-13 13:31N 34°28' E 134°29'1019.8
2018-Jun-13 13:01N 34°32' E 134°40'1020.7
2018-Jun-13 12:31N 34°35' E 134°52'1019.4
2018-Jun-13 12:01N 34°36' E 135°04'918.7
2018-Jun-13 11:31N 34°36' E 135°15'816.2
2018-Jun-13 11:00N 34°37' E 135°25'1 1.6
2018-Jun-13 10:30N 34°37' E 135°26'0 0.0
2018-Jun-13 10:00N 34°37' E 135°26'0 0.0
2018-Jun-13 09:30N 34°37' E 135°26'0 0.0
2018-Jun-13 09:00N 34°37' E 135°26'0 0.0
2018-Jun-13 08:27N 34°37' E 135°26'0 0.0
2018-Jun-13 08:00N 34°37' E 135°26'0 0.0
2018-Jun-13 07:30N 34°37' E 135°26'0 0.0
2018-Jun-13 07:00N 34°37' E 135°26'0 0.0
2018-Jun-13 06:29N 34°37' E 135°26'0 0.0
2018-Jun-13 06:00N 34°37' E 135°26'0 0.0
2018-Jun-13 05:30N 34°37' E 135°26'0 0.0
2018-Jun-13 05:00N 34°37' E 135°26'0 0.0
2018-Jun-13 04:29N 34°37' E 135°26'0 0.0
2018-Jun-13 03:58N 34°37' E 135°26'0 0.0
2018-Jun-13 03:29N 34°37' E 135°26'0 0.0
2018-Jun-13 03:00N 34°37' E 135°26'0 0.0
2018-Jun-13 02:29N 34°37' E 135°26'1 2.3
2018-Jun-13 02:00N 34°37' E 135°25'510.5
2018-Jun-13 01:30N 34°36' E 135°19'612.3
2018-Jun-13 01:00N 34°35' E 135°11'713.8
2018-Jun-13 00:30N 34°36' E 135°03'714.8
2018-Jun-13 00:00N 34°35' E 134°54'815.4
2018-Jun-12 23:30N 34°32' E 134°46'816.4
2018-Jun-12 23:00N 34°29' E 134°37'816.9
2018-Jun-12 22:30N 34°25' E 134°27'816.8
2018-Jun-12 22:00N 34°23' E 134°17'  

Dump ship's entire track history